Time;durP1;ratioP1;P1;durP2;ratioP2;P2;SDS_P1;SDS_P2;PMS_P1;PMS_P2;Temp;Humidity;BMP_temperature;BMP_pressure;BME280_temperature;BME280_humidity;BME280_pressure;Samples;Min_cycle;Max_cycle;Signal;HPM_P1;HPM_P2
2021/06/25 00:02:55;;;;;;;14.20;11.15;;;;;;;;;;6287098;28;20174;-80
2021/06/25 00:05:57;;;;;;;17.10;11.52;;;;;;;;;;6304667;28;20040;-79
2021/06/25 00:08:59;;;;;;;15.40;11.20;;;;;;;;;;6288273;28;20105;-81
2021/06/25 00:12:00;;;;;;;15.00;10.98;;;;;;;;;;6295589;28;20036;-80
2021/06/25 00:15:04;;;;;;;13.35;10.88;;;;;;;;;;6289846;28;20119;-80
2021/06/25 00:18:06;;;;;;;14.18;10.52;;;;;;;;;;6288561;28;20078;-80
2021/06/25 00:21:08;;;;;;;14.52;11.20;;;;;;;;;;6308432;28;20118;-79
2021/06/25 00:24:09;;;;;;;15.07;10.90;;;;;;;;;;6315342;28;20054;-80
2021/06/25 00:27:11;;;;;;;15.55;11.55;;;;;;;;;;6295193;28;20086;-79
2021/06/25 00:30:15;;;;;;;15.13;11.45;;;;;;;;;;6282883;28;20043;-80
2021/06/25 00:33:17;;;;;;;15.55;10.65;;;;;;;;;;6316365;28;20173;-80
2021/06/25 00:36:19;;;;;;;13.35;11.00;;;;;;;;;;6311448;28;20524;-80
2021/06/25 00:39:20;;;;;;;13.55;10.35;;;;;;;;;;6289859;28;20498;-80
2021/06/25 00:42:22;;;;;;;15.77;11.50;;;;;;;;;;6304897;28;20044;-80
2021/06/25 00:45:24;;;;;;;17.88;12.77;;;;;;;;;;6314565;28;20458;-80
2021/06/25 00:48:25;;;;;;;18.45;12.00;;;;;;;;;;6289838;28;20127;-80
2021/06/25 00:51:27;;;;;;;17.80;12.45;;;;;;;;;;6302756;28;20091;-81
2021/06/25 00:54:28;;;;;;;18.73;12.90;;;;;;;;;;6297647;28;20063;-80
2021/06/25 00:57:30;;;;;;;20.35;12.70;;;;;;;;;;6296066;28;20040;-80
2021/06/25 01:00:32;;;;;;;18.70;13.27;;;;;;;;;;6313939;28;20036;-79
2021/06/25 01:03:35;;;;;;;17.40;13.85;;;;;;;;;;6297179;28;20066;-80
2021/06/25 01:06:37;;;;;;;22.85;13.05;;;;;;;;;;6271834;28;20052;-80
2021/06/25 01:09:40;;;;;;;20.08;13.85;;;;;;;;;;6272176;28;20041;-81
2021/06/25 01:12:43;;;;;;;19.77;13.68;;;;;;;;;;6308833;28;20040;-80
2021/06/25 01:15:45;;;;;;;20.90;14.65;;;;;;;;;;6313822;28;20724;-80
2021/06/25 01:18:46;;;;;;;23.27;14.40;;;;;;;;;;6313902;28;20066;-81
2021/06/25 01:21:48;;;;;;;21.75;15.15;;;;;;;;;;6311860;28;20123;-79
2021/06/25 01:24:50;;;;;;;23.42;14.63;;;;;;;;;;6279450;28;20067;-81
2021/06/25 01:27:54;;;;;;;22.17;14.93;;;;;;;;;;6313390;28;20047;-79
2021/06/25 01:30:55;;;;;;;22.65;15.45;;;;;;;;;;6295852;28;20066;-79
2021/06/25 01:33:57;;;;;;;28.00;17.05;;;;;;;;;;6294213;28;20412;-80
2021/06/25 01:36:59;;;;;;;23.95;16.00;;;;;;;;;;6304256;28;20137;-80
2021/06/25 01:40:01;;;;;;;24.40;16.23;;;;;;;;;;6283779;28;20522;-80
2021/06/25 01:43:03;;;;;;;24.15;16.25;;;;;;;;;;6288957;28;20440;-80
2021/06/25 01:46:11;;;;;;;24.60;16.35;;;;;;;;;;6269236;28;20036;-80
2021/06/25 01:49:13;;;;;;;22.05;15.10;;;;;;;;;;6288536;28;20044;-81
2021/06/25 01:52:19;;;;;;;20.95;14.60;;;;;;;;;;6308506;28;20040;-79
2021/06/25 01:55:21;;;;;;;20.55;15.35;;;;;;;;;;6305111;28;20070;-81
2021/06/25 01:58:25;;;;;;;23.45;15.30;;;;;;;;;;6292799;28;20044;-80
2021/06/25 02:01:27;;;;;;;24.58;15.98;;;;;;;;;;6270512;28;20041;-81
2021/06/25 02:04:28;;;;;;;21.00;14.25;;;;;;;;;;6264524;28;20041;-81
2021/06/25 02:07:30;;;;;;;22.90;15.15;;;;;;;;;;6264112;28;20570;-80
2021/06/25 02:10:32;;;;;;;24.50;15.35;;;;;;;;;;6242852;28;20502;-81
2021/06/25 02:13:34;;;;;;;25.10;16.30;;;;;;;;;;6264913;28;20052;-79
2021/06/25 02:16:36;;;;;;;21.10;15.00;;;;;;;;;;6279710;28;20405;-80
2021/06/25 02:19:38;;;;;;;24.10;16.23;;;;;;;;;;6263713;28;20045;-81
2021/06/25 02:22:39;;;;;;;26.60;16.50;;;;;;;;;;6264146;28;20070;-80
2021/06/25 02:25:41;;;;;;;28.42;17.30;;;;;;;;;;6268330;28;20119;-81
2021/06/25 02:28:43;;;;;;;27.48;18.27;;;;;;;;;;6290731;28;20127;-81
2021/06/25 02:31:44;;;;;;;30.42;19.17;;;;;;;;;;6293757;28;20062;-81
2021/06/25 02:34:46;;;;;;;30.10;17.65;;;;;;;;;;6271639;28;20131;-81
2021/06/25 02:37:48;;;;;;;31.15;18.52;;;;;;;;;;6268918;28;20502;-80
2021/06/25 02:40:49;;;;;;;29.17;18.48;;;;;;;;;;6273197;28;20112;-82
2021/06/25 02:43:51;;;;;;;29.50;18.70;;;;;;;;;;6294099;28;20109;-81
2021/06/25 02:46:52;;;;;;;31.08;19.25;;;;;;;;;;6282228;28;20033;-82
2021/06/25 02:49:54;;;;;;;30.30;18.30;;;;;;;;;;6283003;28;20120;-81
2021/06/25 02:52:56;;;;;;;26.48;16.98;;;;;;;;;;6267975;28;20108;-81
2021/06/25 02:55:57;;;;;;;29.33;18.00;;;;;;;;;;6280917;28;20040;-81
2021/06/25 02:58:59;;;;;;;28.98;18.10;;;;;;;;;;6317442;28;20123;-81
2021/06/25 03:02:00;;;;;;;29.38;18.02;;;;;;;;;;6298519;28;20436;-81
2021/06/25 03:05:04;;;;;;;25.95;16.65;;;;;;;;;;6310365;28;20040;-81
2021/06/25 03:08:06;;;;;;;30.10;18.45;;;;;;;;;;6274192;28;20174;-81
2021/06/25 03:11:07;;;;;;;27.27;17.67;;;;;;;;;;6291404;28;20037;-80
2021/06/25 03:14:09;;;;;;;29.17;17.75;;;;;;;;;;6292313;28;20062;-80
2021/06/25 03:17:11;;;;;;;29.55;18.10;;;;;;;;;;6292406;28;20128;-81
2021/06/25 03:20:13;;;;;;;27.52;17.63;;;;;;;;;;6299490;28;20085;-81
2021/06/25 03:23:15;;;;;;;26.95;17.98;;;;;;;;;;6316856;28;20044;-81
2021/06/25 03:26:17;;;;;;;25.30;16.30;;;;;;;;;;6307185;28;20120;-80
2021/06/25 03:29:18;;;;;;;25.77;16.55;;;;;;;;;;6290774;28;20202;-81
2021/06/25 03:32:20;;;;;;;30.27;17.23;;;;;;;;;;6291294;28;20044;-81
2021/06/25 03:35:22;;;;;;;29.73;18.85;;;;;;;;;;6273184;28;20567;-81
2021/06/25 03:38:23;;;;;;;30.88;18.52;;;;;;;;;;6291163;28;20648;-80
2021/06/25 03:41:25;;;;;;;31.23;18.15;;;;;;;;;;6289231;28;20824;-80
2021/06/25 03:44:27;;;;;;;29.17;17.63;;;;;;;;;;6291342;28;20037;-81
2021/06/25 03:47:28;;;;;;;27.25;18.05;;;;;;;;;;6291771;28;20120;-82
2021/06/25 03:50:30;;;;;;;28.55;18.00;;;;;;;;;;6275451;28;20043;-81
2021/06/25 03:53:32;;;;;;;29.00;17.92;;;;;;;;;;6316050;28;20059;-80
2021/06/25 03:56:34;;;;;;;27.23;17.08;;;;;;;;;;6290345;28;20039;-81
2021/06/25 03:59:37;;;;;;;26.58;17.60;;;;;;;;;;6291785;28;20413;-81
2021/06/25 04:02:39;;;;;;;;;;;;;;;;;;6288779;28;20527;-81
2021/06/25 04:05:41;;;;;;;29.30;17.00;;;;;;;;;;6288634;28;19926;-81
2021/06/25 04:08:42;;;;;;;28.33;18.30;;;;;;;;;;6289384;28;20496;-80
2021/06/25 04:11:44;;;;;;;29.45;18.00;;;;;;;;;;6288357;28;20089;-81
2021/06/25 04:14:46;;;;;;;37.58;21.42;;;;;;;;;;6255669;28;20118;-80
2021/06/25 04:17:47;;;;;;;37.47;21.45;;;;;;;;;;6272863;28;20043;-80
2021/06/25 04:20:50;;;;;;;34.67;20.95;;;;;;;;;;6311333;28;20101;-82
2021/06/25 04:23:52;;;;;;;34.92;21.30;;;;;;;;;;6315849;28;20089;-82
2021/06/25 04:26:54;;;;;;;35.97;21.25;;;;;;;;;;6274060;28;20520;-79
2021/06/25 04:29:55;;;;;;;38.03;21.67;;;;;;;;;;6246914;28;20045;-81
2021/06/25 04:32:59;;;;;;;36.20;21.73;;;;;;;;;;6265915;28;20581;-82
2021/06/25 04:36:00;;;;;;;34.60;20.55;;;;;;;;;;6276831;28;20051;-81
2021/06/25 04:39:05;;;;;;;34.20;21.05;;;;;;;;;;6290090;28;20047;-80
2021/06/25 04:42:09;;;;;;;34.95;19.75;;;;;;;;;;6304943;28;20047;-81
2021/06/25 04:45:11;;;;;;;33.30;20.85;;;;;;;;;;6296410;28;20456;-80
2021/06/25 04:48:14;;;;;;;32.22;20.98;;;;;;;;;;6293614;28;20062;-81
2021/06/25 04:51:16;;;;;;;;;;;;;;;;;;6289574;28;20046;-81
2021/06/25 04:54:17;;;;;;;34.10;20.48;;;;;;;;;;6289691;28;20413;-80
2021/06/25 04:57:19;;;;;;;31.02;20.35;;;;;;;;;;6290877;28;20066;-80
2021/06/25 05:00:23;;;;;;;34.70;21.73;;;;;;;;;;6271226;28;20506;-81
2021/06/25 05:03:25;;;;;;;31.85;20.33;;;;;;;;;;6290007;28;20454;-80
2021/06/25 05:06:27;;;;;;;31.85;20.13;;;;;;;;;;6305524;28;20043;-81
2021/06/25 05:09:28;;;;;;;32.17;20.10;;;;;;;;;;6290029;28;20046;-81
2021/06/25 05:12:30;;;;;;;32.35;20.67;;;;;;;;;;6308573;28;20174;-80
2021/06/25 05:15:32;;;;;;;31.25;21.20;;;;;;;;;;6296388;28;20551;-81
2021/06/25 05:18:33;;;;;;;34.75;22.48;;;;;;;;;;6314543;28;20036;-81
2021/06/25 05:21:52;;;;;;;37.22;23.02;;;;;;;;;;6313372;28;20047;-81
2021/06/25 05:24:54;;;;;;;41.42;23.23;;;;;;;;;;6297331;28;20056;-81
2021/06/25 05:27:56;;;;;;;37.25;23.30;;;;;;;;;;6313735;28;20065;-81
2021/06/25 05:30:58;;;;;;;38.15;22.88;;;;;;;;;;6314763;28;20040;-82
2021/06/25 05:34:00;;;;;;;39.25;24.23;;;;;;;;;;6315125;28;20040;-82
2021/06/25 05:37:01;;;;;;;37.88;24.33;;;;;;;;;;6314085;28;20044;-81
2021/06/25 05:40:03;;;;;;;40.10;24.73;;;;;;;;;;6296883;28;20040;-82
2021/06/25 05:43:06;;;;;;;45.80;24.63;;;;;;;;;;6314813;28;20055;-81
2021/06/25 05:46:09;;;;;;;38.92;23.75;;;;;;;;;;6309327;28;20087;-82
2021/06/25 05:49:11;;;;;;;;;;;;;;;;;;6291610;28;20090;-82
2021/06/25 05:52:12;;;;;;;43.28;24.65;;;;;;;;;;6263239;28;20007;-82
2021/06/25 05:55:14;;;;;;;42.63;25.77;;;;;;;;;;6265480;28;20124;-82
2021/06/25 05:58:16;;;;;;;47.28;26.60;;;;;;;;;;6247349;28;20083;-81
2021/06/25 06:01:17;;;;;;;43.28;24.98;;;;;;;;;;6262968;28;20059;-81
2021/06/25 06:04:19;;;;;;;47.30;26.27;;;;;;;;;;6282100;28;20117;-81
2021/06/25 06:07:21;;;;;;;43.97;26.55;;;;;;;;;;6309016;28;20193;-82
2021/06/25 06:10:22;;;;;;;49.28;26.08;;;;;;;;;;6292196;28;20074;-82
2021/06/25 06:13:24;;;;;;;43.97;26.15;;;;;;;;;;6293738;28;20070;-81
2021/06/25 06:16:26;;;;;;;42.03;25.65;;;;;;;;;;6292741;28;20036;-81
2021/06/25 06:19:38;;;;;;;48.45;27.35;;;;;;;;;;6292899;28;20044;-82
2021/06/25 06:33:07;;;;;;;46.88;26.33;;;;;;;;;;6290688;28;20109;-82
2021/06/25 06:36:30;;;;;;;44.90;25.67;;;;;;;;;;6292363;28;20049;-83
2021/06/25 06:39:32;;;;;;;41.92;25.30;;;;;;;;;;6292412;28;20051;-81
2021/06/25 06:42:34;;;;;;;46.28;25.33;;;;;;;;;;6289656;28;20107;-81
2021/06/25 06:45:36;;;;;;;44.33;25.38;;;;;;;;;;6290042;28;20072;-81
2021/06/25 06:48:39;;;;;;;41.47;24.65;;;;;;;;;;6257074;28;20048;-82
2021/06/25 06:51:40;;;;;;;41.72;25.55;;;;;;;;;;6291533;28;20116;-82
2021/06/25 06:54:42;;;;;;;40.95;24.52;;;;;;;;;;6273907;28;20600;-82
2021/06/25 06:57:44;;;;;;;42.45;25.17;;;;;;;;;;6306868;28;20039;-81
2021/06/25 07:00:46;;;;;;;41.80;24.73;;;;;;;;;;6308632;28;20647;-81
2021/06/25 07:04:05;;;;;;;43.75;25.35;;;;;;;;;;6316821;28;20040;-84
2021/06/25 07:07:06;;;;;;;41.67;26.13;;;;;;;;;;6299593;28;20040;-82
2021/06/25 07:10:10;;;;;;;42.42;25.23;;;;;;;;;;6292449;28;20041;-82
2021/06/25 07:13:13;;;;;;;41.38;24.63;;;;;;;;;;6267520;28;20037;-82
2021/06/25 07:16:14;;;;;;;44.53;25.73;;;;;;;;;;6266005;28;20049;-82
2021/06/25 07:19:16;;;;;;;46.63;26.70;;;;;;;;;;6277455;28;20569;-81
2021/06/25 07:22:18;;;;;;;48.35;27.35;;;;;;;;;;6283152;28;20170;-82
2021/06/25 07:25:20;;;;;;;48.88;26.73;;;;;;;;;;6272506;28;20063;-82
2021/06/25 07:28:21;;;;;;;45.13;26.65;;;;;;;;;;6291128;28;20054;-82
2021/06/25 07:31:23;;;;;;;48.17;27.58;;;;;;;;;;6297107;28;20108;-84
2021/06/25 07:34:25;;;;;;;49.17;28.02;;;;;;;;;;6297784;28;20040;-87
2021/06/25 07:37:27;;;;;;;53.27;29.40;;;;;;;;;;6296059;28;20043;-83
2021/06/25 07:40:29;;;;;;;52.10;29.15;;;;;;;;;;6276544;28;20040;-84
2021/06/25 07:43:31;;;;;;;62.85;32.83;;;;;;;;;;6289218;28;20050;-84
2021/06/25 07:46:33;;;;;;;56.75;32.00;;;;;;;;;;6292402;28;20089;-83
2021/06/25 07:49:35;;;;;;;60.85;32.20;;;;;;;;;;6283075;28;20509;-83
2021/06/25 07:52:37;;;;;;;54.55;30.65;;;;;;;;;;6285426;28;20040;-84
2021/06/25 07:55:43;;;;;;;54.43;30.40;;;;;;;;;;6284197;28;20051;-85
2021/06/25 07:58:45;;;;;;;53.55;30.02;;;;;;;;;;6298108;28;20438;-82
2021/06/25 08:01:46;;;;;;;52.20;30.35;;;;;;;;;;6297615;28;20131;-84
2021/06/25 08:04:48;;;;;;;50.03;29.23;;;;;;;;;;6294118;28;20040;-82
2021/06/25 08:07:50;;;;;;;49.63;28.05;;;;;;;;;;6290578;28;20036;-84
2021/06/25 08:10:52;;;;;;;46.40;28.75;;;;;;;;;;6289807;28;20114;-83
2021/06/25 08:13:53;;;;;;;46.83;27.85;;;;;;;;;;6272514;28;20036;-84
2021/06/25 08:16:55;;;;;;;44.50;27.20;;;;;;;;;;6272711;28;20108;-83
2021/06/25 08:19:56;;;;;;;45.13;27.98;;;;;;;;;;6304941;28;20123;-83
2021/06/25 08:22:58;;;;;;;42.55;26.90;;;;;;;;;;6296920;28;20046;-83
2021/06/25 08:26:00;;;;;;;41.65;26.13;;;;;;;;;;6314847;28;20036;-83
2021/06/25 08:29:01;;;;;;;42.60;25.98;;;;;;;;;;6297202;28;20131;-84
2021/06/25 08:32:03;;;;;;;40.78;26.13;;;;;;;;;;6315281;28;20165;-83
2021/06/25 08:35:07;;;;;;;39.30;26.45;;;;;;;;;;6298682;28;20067;-83
2021/06/25 08:38:08;;;;;;;41.67;25.83;;;;;;;;;;6290050;28;20494;-84
2021/06/25 08:41:10;;;;;;;40.92;27.10;;;;;;;;;;6297005;28;20417;-83
2021/06/25 08:44:12;;;;;;;36.85;25.10;;;;;;;;;;6316059;28;20177;-84
2021/06/25 08:47:13;;;;;;;38.10;26.10;;;;;;;;;;6316814;28;20127;-83
2021/06/25 08:50:17;;;;;;;39.45;25.42;;;;;;;;;;6313937;28;20139;-83
2021/06/25 08:53:19;;;;;;;38.25;26.33;;;;;;;;;;6316354;28;20047;-85
2021/06/25 08:56:21;;;;;;;39.17;26.58;;;;;;;;;;6280320;28;20134;-83
2021/06/25 08:59:23;;;;;;;34.38;23.92;;;;;;;;;;6315395;28;20136;-83
2021/06/25 09:02:31;;;;;;;34.72;24.45;;;;;;;;;;6297018;28;20060;-84
2021/06/25 09:05:33;;;;;;;37.42;24.52;;;;;;;;;;6285280;28;20205;-84
2021/06/25 09:08:35;;;;;;;36.58;24.92;;;;;;;;;;6284242;28;20505;-83
2021/06/25 09:11:40;;;;;;;36.92;25.23;;;;;;;;;;6260469;28;20044;-84
2021/06/25 09:14:58;;;;;;;38.30;26.98;;;;;;;;;;6285986;28;20055;-84
2021/06/25 09:18:05;;;;;;;39.03;26.05;;;;;;;;;;6266105;28;20096;-84
2021/06/25 09:21:12;;;;;;;37.65;25.08;;;;;;;;;;6266878;28;20049;-84
2021/06/25 09:24:25;;;;;;;37.35;26.02;;;;;;;;;;6284123;28;20129;-84
2021/06/25 09:27:28;;;;;;;36.92;24.65;;;;;;;;;;6271273;28;20649;-83
2021/06/25 09:30:42;;;;;;;36.17;25.20;;;;;;;;;;6287903;28;20036;-83
2021/06/25 09:33:50;;;;;;;39.50;26.15;;;;;;;;;;6309345;28;20072;-83
2021/06/25 09:37:00;;;;;;;38.08;26.08;;;;;;;;;;6291032;28;20163;-82
2021/06/25 09:40:04;;;;;;;43.08;26.60;;;;;;;;;;6290037;28;20056;-83
2021/06/25 09:43:12;;;;;;;39.90;27.00;;;;;;;;;;6289324;28;20120;-82
2021/06/25 09:46:14;;;;;;;38.60;26.70;;;;;;;;;;6290190;28;20131;-82
2021/06/25 09:49:23;;;;;;;43.75;27.63;;;;;;;;;;6293676;28;20052;-82
2021/06/25 09:52:57;;;;;;;39.20;27.17;;;;;;;;;;6291857;28;20062;-81
2021/06/25 09:56:00;;;;;;;37.75;26.73;;;;;;;;;;6283124;28;20120;-82
2021/06/25 10:02:31;;;;;;;39.78;27.38;;;;;;;;;;6265609;28;20064;-81
2021/06/25 10:05:33;;;;;;;38.80;26.63;;;;;;;;;;6282196;28;20036;-82
2021/06/25 10:08:35;;;;;;;38.88;25.70;;;;;;;;;;6272942;28;20045;-81
2021/06/25 10:11:37;;;;;;;41.88;27.55;;;;;;;;;;6265298;28;20057;-81
2021/06/25 10:14:40;;;;;;;40.17;27.17;;;;;;;;;;6283256;28;20550;-81
2021/06/25 10:17:42;;;;;;;41.17;27.08;;;;;;;;;;6267265;28;20045;-82
2021/06/25 10:20:45;;;;;;;40.53;27.95;;;;;;;;;;6261808;28;20124;-83
2021/06/25 10:23:51;;;;;;;40.42;27.25;;;;;;;;;;6266288;28;20127;-82
2021/06/25 10:26:54;;;;;;;38.72;27.35;;;;;;;;;;6276633;28;20723;-80
2021/06/25 10:29:57;;;;;;;41.30;26.42;;;;;;;;;;6286530;28;20123;-82
2021/06/25 10:33:01;;;;;;;37.80;26.15;;;;;;;;;;6286189;28;20170;-83
2021/06/25 10:36:05;;;;;;;37.80;25.17;;;;;;;;;;6263454;28;20034;-81
2021/06/25 10:39:13;;;;;;;37.03;25.65;;;;;;;;;;6263478;28;20056;-80
2021/06/25 10:42:15;;;;;;;34.97;24.63;;;;;;;;;;6243685;28;20052;-80
2021/06/25 10:45:16;;;;;;;40.13;26.83;;;;;;;;;;6238698;28;20041;-78
2021/06/25 10:48:39;;;;;;;32.15;21.02;;;;;;;;;;6247024;28;20575;-80
2021/06/25 10:51:44;;;;;;;34.60;24.73;;;;;;;;;;6271679;28;20518;-80
2021/06/25 10:55:03;;;;;;;30.25;22.70;;;;;;;;;;6269400;28;20074;-79
2021/06/25 10:58:06;;;;;;;31.83;22.48;;;;;;;;;;6269560;28;20049;-81
2021/06/25 11:01:07;;;;;;;31.30;22.00;;;;;;;;;;6269816;28;20120;-80
2021/06/25 11:04:37;;;;;;;28.77;20.52;;;;;;;;;;6280074;28;20043;-81
2021/06/25 11:07:39;;;;;;;25.73;19.88;;;;;;;;;;6284413;28;20061;-81
2021/06/25 11:10:52;;;;;;;25.27;19.08;;;;;;;;;;6270990;28;20076;-81
2021/06/25 11:13:53;;;;;;;26.42;20.70;;;;;;;;;;6269595;28;20110;-79
2021/06/25 11:16:55;;;;;;;26.90;20.23;;;;;;;;;;6270943;28;20060;-81
2021/06/25 11:20:15;;;;;;;24.00;18.70;;;;;;;;;;6291810;28;20055;-81
2021/06/25 11:23:22;;;;;;;24.15;18.05;;;;;;;;;;6297618;28;20044;-79
2021/06/25 11:26:25;;;;;;;23.10;17.90;;;;;;;;;;6285258;28;20049;-80
2021/06/25 11:29:44;;;;;;;22.17;17.15;;;;;;;;;;6270077;28;20198;-79
2021/06/25 11:32:46;;;;;;;22.52;17.65;;;;;;;;;;6268859;28;20075;-79
2021/06/25 11:35:48;;;;;;;23.92;16.77;;;;;;;;;;6269076;28;20037;-81
2021/06/25 11:38:52;;;;;;;23.08;16.75;;;;;;;;;;6270355;28;20517;-80
2021/06/25 11:42:07;;;;;;;22.02;17.00;;;;;;;;;;6282755;28;20044;-80
2021/06/25 11:45:09;;;;;;;19.00;15.57;;;;;;;;;;6295348;28;20047;-81
2021/06/25 11:48:12;;;;;;;18.53;14.57;;;;;;;;;;6273210;28;20118;-81
2021/06/25 11:51:16;;;;;;;18.88;14.90;;;;;;;;;;6290763;28;20045;-79
2021/06/25 11:54:21;;;;;;;18.77;15.13;;;;;;;;;;6276310;28;20040;-80
2021/06/25 11:57:28;;;;;;;19.02;14.82;;;;;;;;;;6276342;28;20498;-81
2021/06/25 12:00:30;;;;;;;17.17;14.68;;;;;;;;;;6270041;28;20047;-80
2021/06/25 12:03:42;;;;;;;15.43;12.05;;;;;;;;;;6268653;28;20056;-78
2021/06/25 12:06:49;;;;;;;14.00;11.30;;;;;;;;;;6274618;28;20037;-81
2021/06/25 12:09:53;;;;;;;18.10;14.80;;;;;;;;;;6273327;28;20136;-80
2021/06/25 12:12:57;;;;;;;18.33;14.70;;;;;;;;;;6308797;28;20109;-81
2021/06/25 12:16:00;;;;;;;16.52;14.00;;;;;;;;;;6294708;28;20055;-80
2021/06/25 12:19:02;;;;;;;19.15;14.65;;;;;;;;;;6292025;28;20119;-80
2021/06/25 12:22:09;;;;;;;14.93;12.95;;;;;;;;;;6291948;28;20032;-80
2021/06/25 12:25:10;;;;;;;17.70;13.98;;;;;;;;;;6293724;28;20041;-80
2021/06/25 12:28:19;;;;;;;18.87;14.40;;;;;;;;;;6253770;28;20049;-82
2021/06/25 12:31:24;;;;;;;17.50;13.25;;;;;;;;;;6257634;28;20045;-82
2021/06/25 12:34:26;;;;;;;15.48;13.05;;;;;;;;;;6265314;28;20049;-82
2021/06/25 12:37:53;;;;;;;13.35;11.10;;;;;;;;;;6263505;28;20055;-82
2021/06/25 12:40:59;;;;;;;11.52;10.02;;;;;;;;;;6262057;28;20065;-82
2021/06/25 12:44:01;;;;;;;12.02;10.23;;;;;;;;;;6256653;28;20099;-83
2021/06/25 12:47:08;;;;;;;13.95;9.75;;;;;;;;;;6273692;28;20177;-83
2021/06/25 12:50:10;;;;;;;11.82;8.88;;;;;;;;;;6271963;28;20040;-84
2021/06/25 12:53:22;;;;;;;11.00;8.20;;;;;;;;;;6290198;28;20040;-83
2021/06/25 12:56:42;;;;;;;11.18;9.65;;;;;;;;;;6275197;28;20045;-84
2021/06/25 12:59:47;;;;;;;12.02;9.10;;;;;;;;;;6291359;28;20123;-83
2021/06/25 13:02:50;;;;;;;12.07;9.20;;;;;;;;;;6295684;28;20044;-82
2021/06/25 13:05:52;;;;;;;11.15;9.00;;;;;;;;;;6278386;28;20174;-83
2021/06/25 13:08:56;;;;;;;11.70;8.80;;;;;;;;;;6286854;28;20064;-82
2021/06/25 13:12:08;;;;;;;11.60;8.88;;;;;;;;;;6288203;28;20068;-84
2021/06/25 13:15:11;;;;;;;10.30;8.95;;;;;;;;;;6270710;28;20068;-83
2021/06/25 13:18:14;;;;;;;11.07;9.52;;;;;;;;;;6290295;28;20048;-81
2021/06/25 13:21:46;;;;;;;12.02;9.20;;;;;;;;;;6267573;28;20050;-81
2021/06/25 13:24:50;;;;;;;12.73;9.13;;;;;;;;;;6256256;28;20055;-80
2021/06/25 13:27:54;;;;;;;12.65;10.13;;;;;;;;;;6249463;28;20045;-81
2021/06/25 13:31:05;;;;;;;12.77;9.85;;;;;;;;;;6263426;28;20144;-80
2021/06/25 13:34:08;;;;;;;13.10;9.80;;;;;;;;;;6289380;28;20048;-81
2021/06/25 13:37:10;;;;;;;13.63;9.27;;;;;;;;;;6253461;28;20100;-81
2021/06/25 13:40:16;;;;;;;12.52;9.55;;;;;;;;;;6287230;28;20044;-82
2021/06/25 13:43:27;;;;;;;11.75;8.77;;;;;;;;;;6279568;28;20047;-80
2021/06/25 13:46:33;;;;;;;11.82;8.75;;;;;;;;;;6286781;28;20033;-84
2021/06/25 13:49:38;;;;;;;10.73;8.70;;;;;;;;;;6267438;28;20399;-82
2021/06/25 13:52:49;;;;;;;11.57;9.30;;;;;;;;;;6279255;28;20044;-82
2021/06/25 13:56:19;;;;;;;11.00;8.23;;;;;;;;;;6288424;28;20100;-82
2021/06/25 13:59:21;;;;;;;12.77;8.73;;;;;;;;;;6262573;28;20108;-83
2021/06/25 14:02:28;;;;;;;9.07;8.05;;;;;;;;;;6276319;28;20125;-83
2021/06/25 14:05:30;;;;;;;9.55;8.00;;;;;;;;;;6271674;28;20041;-83
2021/06/25 14:08:45;;;;;;;11.15;8.52;;;;;;;;;;6289588;28;20051;-81
2021/06/25 14:11:48;;;;;;;10.00;8.93;;;;;;;;;;6288890;28;20043;-82
2021/06/25 14:14:55;;;;;;;10.13;9.05;;;;;;;;;;6272362;28;20046;-82
2021/06/25 14:17:59;;;;;;;9.85;8.85;;;;;;;;;;6289839;28;20502;-82
2021/06/25 14:21:01;;;;;;;8.77;7.78;;;;;;;;;;6287803;28;20041;-83
2021/06/25 14:24:04;;;;;;;10.60;7.30;;;;;;;;;;6289269;28;20048;-82
2021/06/25 14:27:06;;;;;;;11.07;7.95;;;;;;;;;;6293787;28;20044;-83
2021/06/25 14:30:09;;;;;;;10.60;8.13;;;;;;;;;;6292634;28;20162;-82
2021/06/25 14:33:11;;;;;;;9.02;7.78;;;;;;;;;;6274080;28;20541;-83
2021/06/25 14:36:13;;;;;;;10.57;7.83;;;;;;;;;;6291699;28;20040;-82
2021/06/25 14:39:15;;;;;;;;;;;;;;;;;;6275060;28;20041;-82
2021/06/25 14:42:26;;;;;;;7.95;6.95;;;;;;;;;;6291013;28;19924;-82
2021/06/25 14:45:27;;;;;;;10.48;7.97;;;;;;;;;;6295426;28;20187;-82
2021/06/25 14:48:30;;;;;;;8.88;7.82;;;;;;;;;;6293301;28;20105;-82
2021/06/25 14:51:32;;;;;;;9.15;7.93;;;;;;;;;;6294218;28;20117;-82
2021/06/25 14:54:34;;;;;;;9.90;8.75;;;;;;;;;;6292472;28;20051;-82
2021/06/25 14:57:35;;;;;;;9.10;7.40;;;;;;;;;;6291487;28;20124;-83
2021/06/25 15:00:41;;;;;;;8.27;7.40;;;;;;;;;;6290319;28;20040;-83
2021/06/25 15:03:43;;;;;;;9.23;7.82;;;;;;;;;;6292130;28;20071;-83
2021/06/25 15:06:45;;;;;;;9.48;8.02;;;;;;;;;;6261607;28;20402;-82
2021/06/25 15:09:46;;;;;;;8.93;7.70;;;;;;;;;;6274790;28;20036;-82
2021/06/25 15:12:48;;;;;;;11.10;8.73;;;;;;;;;;6289913;28;20170;-83
2021/06/25 15:15:50;;;;;;;9.48;7.93;;;;;;;;;;6272113;28;20048;-82
2021/06/25 15:18:52;;;;;;;8.93;7.25;;;;;;;;;;6267206;28;20486;-82
2021/06/25 15:21:53;;;;;;;10.23;8.15;;;;;;;;;;6281696;28;20582;-82
2021/06/25 15:24:55;;;;;;;10.30;8.27;;;;;;;;;;6294795;28;20043;-83
2021/06/25 15:27:57;;;;;;;11.63;8.63;;;;;;;;;;6270782;28;20085;-82
2021/06/25 15:30:59;;;;;;;10.70;8.27;;;;;;;;;;6282919;28;20047;-83
2021/06/25 15:34:00;;;;;;;9.63;8.02;;;;;;;;;;6266415;28;20041;-83
2021/06/25 15:37:02;;;;;;;10.10;7.90;;;;;;;;;;6282416;28;20032;-83
2021/06/25 15:40:07;;;;;;;9.10;8.00;;;;;;;;;;6304902;28;20044;-83
2021/06/25 15:43:09;;;;;;;9.80;8.80;;;;;;;;;;6292534;28;20109;-87
2021/06/25 15:46:11;;;;;;;13.13;8.73;;;;;;;;;;6281380;28;20047;-83
2021/06/25 15:49:12;;;;;;;11.20;8.95;;;;;;;;;;6291901;28;20047;-83
2021/06/25 15:52:18;;;;;;;11.00;8.27;;;;;;;;;;6289918;28;20078;-84
2021/06/25 15:55:20;;;;;;;9.50;7.90;;;;;;;;;;6294293;28;20084;-85
2021/06/25 15:58:21;;;;;;;9.65;8.65;;;;;;;;;;6275219;28;20055;-83
2021/06/25 16:01:23;;;;;;;11.73;8.17;;;;;;;;;;6267722;28;20044;-83
2021/06/25 16:04:25;;;;;;;10.90;8.57;;;;;;;;;;6276160;28;20057;-82
2021/06/25 16:07:27;;;;;;;10.02;7.70;;;;;;;;;;6290883;28;20048;-83
2021/06/25 16:10:34;;;;;;;11.40;9.38;;;;;;;;;;6257564;28;20072;-82
2021/06/25 16:13:41;;;;;;;10.15;8.95;;;;;;;;;;6290305;28;20049;-83
2021/06/25 16:16:43;;;;;;;9.35;8.35;;;;;;;;;;6292985;28;20497;-83
2021/06/25 16:19:45;;;;;;;8.95;7.50;;;;;;;;;;6289103;28;20052;-83
2021/06/25 16:22:47;;;;;;;11.68;8.68;;;;;;;;;;6276991;28;20055;-82
2021/06/25 16:25:49;;;;;;;8.48;7.63;;;;;;;;;;6280535;28;20065;-83
2021/06/25 16:28:50;;;;;;;8.73;7.70;;;;;;;;;;6298464;28;20033;-83
2021/06/25 16:31:52;;;;;;;10.10;8.40;;;;;;;;;;6288954;28;20064;-84
2021/06/25 16:34:54;;;;;;;9.10;8.20;;;;;;;;;;6295801;28;20070;-83
2021/06/25 16:37:56;;;;;;;8.93;7.88;;;;;;;;;;6296885;28;20044;-83
2021/06/25 16:40:57;;;;;;;11.07;8.07;;;;;;;;;;6285854;28;20051;-84
2021/06/25 16:44:00;;;;;;;9.15;8.25;;;;;;;;;;6287983;28;20067;-82
2021/06/25 16:47:02;;;;;;;10.32;8.57;;;;;;;;;;6291277;28;20090;-82
2021/06/25 16:50:04;;;;;;;8.98;8.13;;;;;;;;;;6274668;28;20036;-82
2021/06/25 16:53:05;;;;;;;9.52;8.23;;;;;;;;;;6284153;28;20523;-82
2021/06/25 16:56:07;;;;;;;8.75;7.35;;;;;;;;;;6303053;28;20501;-82
2021/06/25 16:59:09;;;;;;;10.45;7.80;;;;;;;;;;6269481;28;20048;-82
2021/06/25 17:02:11;;;;;;;8.63;7.72;;;;;;;;;;6264461;28;20041;-84
2021/06/25 17:05:12;;;;;;;10.00;7.13;;;;;;;;;;6270137;28;20400;-83
2021/06/25 17:08:14;;;;;;;10.32;7.57;;;;;;;;;;6264428;28;20559;-84
2021/06/25 17:11:16;;;;;;;8.02;7.22;;;;;;;;;;6287515;28;20040;-81
2021/06/25 17:14:17;;;;;;;11.65;8.20;;;;;;;;;;6301180;28;20519;-82
2021/06/25 17:17:19;;;;;;;8.88;7.57;;;;;;;;;;6282034;28;20044;-80
2021/06/25 17:20:20;;;;;;;8.30;7.30;;;;;;;;;;6285740;28;20561;-83
2021/06/25 17:23:22;;;;;;;9.35;7.75;;;;;;;;;;6287521;28;20036;-82
2021/06/25 17:26:24;;;;;;;9.73;7.97;;;;;;;;;;6282736;28;20055;-82
2021/06/25 17:29:25;;;;;;;7.93;7.10;;;;;;;;;;6291054;28;20412;-84
2021/06/25 17:32:27;;;;;;;7.63;6.90;;;;;;;;;;6267426;28;20059;-84
2021/06/25 17:35:30;;;;;;;8.95;7.18;;;;;;;;;;6305817;28;20119;-84
2021/06/25 17:38:32;;;;;;;;;;;;;;;;;;6312638;28;20040;-82
2021/06/25 17:41:33;;;;;;;8.27;6.72;;;;;;;;;;6284409;28;19920;-83
2021/06/25 17:44:37;;;;;;;8.93;7.70;;;;;;;;;;6290739;28;20560;-83
2021/06/25 17:47:39;;;;;;;7.90;7.10;;;;;;;;;;6289142;28;20425;-83
2021/06/25 17:50:41;;;;;;;8.48;7.55;;;;;;;;;;6287878;28;20409;-82
2021/06/25 17:53:43;;;;;;;7.90;7.10;;;;;;;;;;6288751;28;20409;-83
2021/06/25 17:56:45;;;;;;;11.20;7.63;;;;;;;;;;6301566;28;20043;-83
2021/06/25 17:59:47;;;;;;;9.20;7.30;;;;;;;;;;6314427;28;20128;-81
2021/06/25 18:02:52;;;;;;;8.75;7.43;;;;;;;;;;6287267;28;20044;-81
2021/06/25 18:05:54;;;;;;;8.77;7.53;;;;;;;;;;6305892;28;20121;-81
2021/06/25 18:08:55;;;;;;;8.48;7.57;;;;;;;;;;6300226;28;20135;-82
2021/06/25 18:11:57;;;;;;;9.07;6.85;;;;;;;;;;6287738;28;20067;-82